<?xml version="1.0" encoding="UTF-8" standalone="no" ?>
<gpx xmlns="http://www.topografix.com/GPX/1/1" xmlns:xsi="http://www.w3.org/2001/XMLSchema-instance" xsi:schemaLocation="http://www.topografix.com/GPX/1/1 http://www.topografix.com/GPX/1/1/gpx.xsd" version="1.1" creator="VisuGPX - https://www.visugpx.com">
  <metadata>
    <name>Tête des Pras Arnaud par le Pas de Paul - Bivouac (Devoluy)</name>
    <desc><![CDATA[Au départ de [b]Les Sauvas[/b] (1343m) , suivre le GR jusqu('à la [b]source de la Sigouste[/b]. Continuer en direction de la Combe de Mai jusqu'à environ 1830m. C'est hors entier à partir de là et quelques kairns invitent à partir plein Ouest en lègère montée jusqu'au [b]ravin de Côte Belle[/b]. A partir de là vers 2000m , c'est tout droit  dans des escaliers Dévoluards. A faire par temps sec (R4). Du plateau, retour par l[b]a Combe de Mai[/b].
Partit tardivement pour les belles lumières du soir et [b]Bivouac[/b] sur le plateau.
photos là: [url]https://goo.gl/photos/HPRwopHpXoDqLYGY8[/url]
.
Autres sorties dans le Dévoluy --> [url]http://www.visugpx.com/membres/87/devoluy/?tri=ttr?[/url]]]></desc>
  </metadata>
  <wpt lat="44.60249" lon="5.90496">
    <ele>1387.36</ele>
    <name><![CDATA[0000003]]></name>
    <desc><![CDATA[]]></desc>
    <type><![CDATA[Point de départ]]></type>
  </wpt>
  <trk>
    <name><![CDATA[2014-10-18 14:36]]></name>
    <desc><![CDATA[<h1>OruxMaps</h1><br /><hr align="center" width="480" style="height: 2px; width: 517px"/><h2>Nom: 2014-10-18 14:36</h2><br /><p>Temps de départ: 10/18/2014 14:37</p><p>Temps d'arrivée: 10/19/2014 15:56</p><p>Distance: 8,2 km (25:19)</p><p>Temps déplacement: 23:40</p><p>Vitesse moyenne: 0,3 km/h</p><p>Vitesse moyenne: 0,3 km/h</p><p>Vitess Max.: 53,5 km/h</p><p>Altitude minimale: 1367 m</p><p>Altitude maximale: 2629 m</p><p>Vitesse d'élévation: 417,5 m/h</p><p>Vitesse de descente: -426,7 m/h</p><p>Gain Altitude: 1373 m</p><p>Perte Altitude: -194 m</p><p>Temps d'élévation: 03:17</p><p>Temps de descente: 00:27</p><hr align="center" width="480" style="height: 2px; width: 517px"/>]]></desc>
    <trkseg>
      <trkpt lat="44.60249" lon="5.90496">
        <ele>1387.36</ele>
        <time>2014-10-18T12:37:04Z</time>
      </trkpt>
      <trkpt lat="44.60267" lon="5.905">
        <ele>1390.64</ele>
        <time>2014-10-18T12:38:57Z</time>
      </trkpt>
      <trkpt lat="44.6028" lon="5.90517">
        <ele>1375.23</ele>
        <time>2014-10-18T12:39:08Z</time>
      </trkpt>
      <trkpt lat="44.60294" lon="5.90534">
        <ele>1367.87</ele>
        <time>2014-10-18T12:39:22Z</time>
      </trkpt>
      <trkpt lat="44.60307" lon="5.90552">
        <ele>1375.04</ele>
        <time>2014-10-18T12:39:44Z</time>
      </trkpt>
      <trkpt lat="44.60324" lon="5.90562">
        <ele>1382.36</ele>
        <time>2014-10-18T12:40:06Z</time>
      </trkpt>
      <trkpt lat="44.60341" lon="5.90574">
        <ele>1393.04</ele>
        <time>2014-10-18T12:40:29Z</time>
      </trkpt>
      <trkpt lat="44.60354" lon="5.90591">
        <ele>1397.35</ele>
        <time>2014-10-18T12:40:55Z</time>
      </trkpt>
      <trkpt lat="44.60385" lon="5.90622">
        <ele>1406.87</ele>
        <time>2014-10-18T12:41:55Z</time>
      </trkpt>
      <trkpt lat="44.60417" lon="5.90618">
        <ele>1414.61</ele>
        <time>2014-10-18T12:42:29Z</time>
      </trkpt>
      <trkpt lat="44.6044" lon="5.9063">
        <ele>1420.14</ele>
        <time>2014-10-18T12:43:12Z</time>
      </trkpt>
      <trkpt lat="44.60461" lon="5.90643">
        <ele>1433.25</ele>
        <time>2014-10-18T12:43:43Z</time>
      </trkpt>
      <trkpt lat="44.60487" lon="5.90648">
        <ele>1445.31</ele>
        <time>2014-10-18T12:44:13Z</time>
      </trkpt>
      <trkpt lat="44.60561" lon="5.90704">
        <ele>1442.35</ele>
        <time>2014-10-18T12:45:45Z</time>
      </trkpt>
      <trkpt lat="44.60579" lon="5.90743">
        <ele>1463.85</ele>
        <time>2014-10-18T12:46:16Z</time>
      </trkpt>
      <trkpt lat="44.60596" lon="5.90753">
        <ele>1470.61</ele>
        <time>2014-10-18T12:46:46Z</time>
      </trkpt>
      <trkpt lat="44.6062" lon="5.90777">
        <ele>1477.48</ele>
        <time>2014-10-18T12:47:16Z</time>
      </trkpt>
      <trkpt lat="44.6064" lon="5.90791">
        <ele>1464.42</ele>
        <time>2014-10-18T12:47:46Z</time>
      </trkpt>
      <trkpt lat="44.60683" lon="5.9084">
        <ele>1461.89</ele>
        <time>2014-10-18T12:48:17Z</time>
      </trkpt>
      <trkpt lat="44.60733" lon="5.90867">
        <ele>1463.13</ele>
        <time>2014-10-18T12:49:17Z</time>
      </trkpt>
      <trkpt lat="44.60821" lon="5.90871">
        <ele>1451.36</ele>
        <time>2014-10-18T12:50:22Z</time>
      </trkpt>
      <trkpt lat="44.6084" lon="5.9084">
        <ele>1472.36</ele>
        <time>2014-10-18T12:51:27Z</time>
      </trkpt>
      <trkpt lat="44.60897" lon="5.9078">
        <ele>1493.86</ele>
        <time>2014-10-18T12:52:28Z</time>
      </trkpt>
      <trkpt lat="44.60947" lon="5.90772">
        <ele>1495.86</ele>
        <time>2014-10-18T12:53:32Z</time>
      </trkpt>
      <trkpt lat="44.60988" lon="5.90755">
        <ele>1505.48</ele>
        <time>2014-10-18T12:54:07Z</time>
      </trkpt>
      <trkpt lat="44.61008" lon="5.90766">
        <ele>1511.86</ele>
        <time>2014-10-18T12:54:41Z</time>
      </trkpt>
      <trkpt lat="44.61017" lon="5.90796">
        <ele>1541.36</ele>
        <time>2014-10-18T12:55:22Z</time>
      </trkpt>
      <trkpt lat="44.61071" lon="5.90812">
        <ele>1561.61</ele>
        <time>2014-10-18T12:55:57Z</time>
      </trkpt>
      <trkpt lat="44.61097" lon="5.908">
        <ele>1557.48</ele>
        <time>2014-10-18T12:56:28Z</time>
      </trkpt>
      <trkpt lat="44.6113" lon="5.90785">
        <ele>1565.42</ele>
        <time>2014-10-18T12:57:28Z</time>
      </trkpt>
      <trkpt lat="44.61239" lon="5.90788">
        <ele>1565.63</ele>
        <time>2014-10-18T12:59:27Z</time>
      </trkpt>
      <trkpt lat="44.61264" lon="5.90762">
        <ele>1565.49</ele>
        <time>2014-10-18T12:59:59Z</time>
      </trkpt>
      <trkpt lat="44.61282" lon="5.90749">
        <ele>1574.93</ele>
        <time>2014-10-18T13:00:29Z</time>
      </trkpt>
      <trkpt lat="44.61314" lon="5.90788">
        <ele>1581.64</ele>
        <time>2014-10-18T13:01:28Z</time>
      </trkpt>
      <trkpt lat="44.61336" lon="5.90759">
        <ele>1574.73</ele>
        <time>2014-10-18T13:02:39Z</time>
      </trkpt>
      <trkpt lat="44.61386" lon="5.90793">
        <ele>1574.55</ele>
        <time>2014-10-18T13:03:38Z</time>
      </trkpt>
      <trkpt lat="44.61418" lon="5.90782">
        <ele>1598.86</ele>
        <time>2014-10-18T13:04:13Z</time>
      </trkpt>
      <trkpt lat="44.61437" lon="5.90822">
        <ele>1596.48</ele>
        <time>2014-10-18T13:04:47Z</time>
      </trkpt>
      <trkpt lat="44.61476" lon="5.90844">
        <ele>1613.42</ele>
        <time>2014-10-18T13:05:19Z</time>
      </trkpt>
      <trkpt lat="44.61466" lon="5.90866">
        <ele>1623.89</ele>
        <time>2014-10-18T13:05:49Z</time>
      </trkpt>
      <trkpt lat="44.61532" lon="5.90915">
        <ele>1606.13</ele>
        <time>2014-10-18T13:06:48Z</time>
      </trkpt>
      <trkpt lat="44.6157" lon="5.90947">
        <ele>1600.24</ele>
        <time>2014-10-18T13:07:19Z</time>
      </trkpt>
      <trkpt lat="44.61578" lon="5.90984">
        <ele>1592.8</ele>
        <time>2014-10-18T13:07:49Z</time>
      </trkpt>
      <trkpt lat="44.61593" lon="5.9107">
        <ele>1590.58</ele>
        <time>2014-10-18T13:08:48Z</time>
      </trkpt>
      <trkpt lat="44.61607" lon="5.91124">
        <ele>1593.36</ele>
        <time>2014-10-18T13:09:32Z</time>
      </trkpt>
      <trkpt lat="44.61612" lon="5.91153">
        <ele>1597.61</ele>
        <time>2014-10-18T13:10:07Z</time>
      </trkpt>
      <trkpt lat="44.61589" lon="5.9121">
        <ele>1605.48</ele>
        <time>2014-10-18T13:10:38Z</time>
      </trkpt>
      <trkpt lat="44.61595" lon="5.91266">
        <ele>1613.92</ele>
        <time>2014-10-18T13:11:37Z</time>
      </trkpt>
      <trkpt lat="44.61613" lon="5.91263">
        <ele>1613.14</ele>
        <time>2014-10-18T13:12:10Z</time>
      </trkpt>
      <trkpt lat="44.61644" lon="5.91269">
        <ele>1616.25</ele>
        <time>2014-10-18T13:13:08Z</time>
      </trkpt>
      <trkpt lat="44.61638" lon="5.91298">
        <ele>1630.33</ele>
        <time>2014-10-18T13:14:09Z</time>
      </trkpt>
      <trkpt lat="44.61667" lon="5.91239">
        <ele>1633.85</ele>
        <time>2014-10-18T13:15:10Z</time>
      </trkpt>
      <trkpt lat="44.61699" lon="5.91215">
        <ele>1629.1</ele>
        <time>2014-10-18T13:15:43Z</time>
      </trkpt>
      <trkpt lat="44.61705" lon="5.91242">
        <ele>1663.61</ele>
        <time>2014-10-18T13:17:30Z</time>
      </trkpt>
      <trkpt lat="44.61734" lon="5.91282">
        <ele>1677.86</ele>
        <time>2014-10-18T13:18:06Z</time>
      </trkpt>
      <trkpt lat="44.61768" lon="5.91281">
        <ele>1664.73</ele>
        <time>2014-10-18T13:18:41Z</time>
      </trkpt>
      <trkpt lat="44.61743" lon="5.91229">
        <ele>1682.05</ele>
        <time>2014-10-18T13:19:12Z</time>
      </trkpt>
      <trkpt lat="44.61735" lon="5.91191">
        <ele>1687.2</ele>
        <time>2014-10-18T13:19:43Z</time>
      </trkpt>
      <trkpt lat="44.61754" lon="5.91181">
        <ele>1686.78</ele>
        <time>2014-10-18T13:20:13Z</time>
      </trkpt>
      <trkpt lat="44.61776" lon="5.91193">
        <ele>1691.57</ele>
        <time>2014-10-18T13:20:43Z</time>
      </trkpt>
      <trkpt lat="44.61799" lon="5.9122">
        <ele>1709.76</ele>
        <time>2014-10-18T13:22:15Z</time>
      </trkpt>
      <trkpt lat="44.61832" lon="5.91224">
        <ele>1753.23</ele>
        <time>2014-10-18T13:23:52Z</time>
      </trkpt>
      <trkpt lat="44.61855" lon="5.91197">
        <ele>1747.33</ele>
        <time>2014-10-18T13:24:54Z</time>
      </trkpt>
      <trkpt lat="44.61821" lon="5.91143">
        <ele>1757.34</ele>
        <time>2014-10-18T13:25:24Z</time>
      </trkpt>
      <trkpt lat="44.61837" lon="5.91101">
        <ele>1762.35</ele>
        <time>2014-10-18T13:25:55Z</time>
      </trkpt>
      <trkpt lat="44.61822" lon="5.91075">
        <ele>1751.86</ele>
        <time>2014-10-18T13:26:25Z</time>
      </trkpt>
      <trkpt lat="44.61823" lon="5.91044">
        <ele>1748.61</ele>
        <time>2014-10-18T13:26:56Z</time>
      </trkpt>
      <trkpt lat="44.61824" lon="5.90993">
        <ele>1770.48</ele>
        <time>2014-10-18T13:27:58Z</time>
      </trkpt>
      <trkpt lat="44.61849" lon="5.9095">
        <ele>1768.42</ele>
        <time>2014-10-18T13:28:58Z</time>
      </trkpt>
      <trkpt lat="44.61858" lon="5.90924">
        <ele>1780.89</ele>
        <time>2014-10-18T13:29:58Z</time>
      </trkpt>
      <trkpt lat="44.61883" lon="5.90938">
        <ele>1803.68</ele>
        <time>2014-10-18T13:34:33Z</time>
      </trkpt>
      <trkpt lat="44.61912" lon="5.90935">
        <ele>1811.52</ele>
        <time>2014-10-18T13:35:03Z</time>
      </trkpt>
      <trkpt lat="44.6193" lon="5.90922">
        <ele>1830.44</ele>
        <time>2014-10-18T13:35:35Z</time>
      </trkpt>
      <trkpt lat="44.61979" lon="5.90896">
        <ele>1827.4</ele>
        <time>2014-10-18T13:36:34Z</time>
      </trkpt>
      <trkpt lat="44.61995" lon="5.90875">
        <ele>1815.38</ele>
        <time>2014-10-18T13:37:06Z</time>
      </trkpt>
      <trkpt lat="44.62016" lon="5.90847">
        <ele>1823.36</ele>
        <time>2014-10-18T13:38:46Z</time>
      </trkpt>
      <trkpt lat="44.62009" lon="5.90799">
        <ele>1830.86</ele>
        <time>2014-10-18T13:39:21Z</time>
      </trkpt>
      <trkpt lat="44.62002" lon="5.90773">
        <ele>1842.11</ele>
        <time>2014-10-18T13:40:22Z</time>
      </trkpt>
      <trkpt lat="44.61996" lon="5.90729">
        <ele>1854.73</ele>
        <time>2014-10-18T13:40:53Z</time>
      </trkpt>
      <trkpt lat="44.61957" lon="5.90671">
        <ele>1872.11</ele>
        <time>2014-10-18T13:45:36Z</time>
      </trkpt>
      <trkpt lat="44.61948" lon="5.90608">
        <ele>1877.36</ele>
        <time>2014-10-18T13:46:56Z</time>
      </trkpt>
      <trkpt lat="44.61918" lon="5.90615">
        <ele>1872.36</ele>
        <time>2014-10-18T13:47:38Z</time>
      </trkpt>
      <trkpt lat="44.6191" lon="5.90584">
        <ele>1875.36</ele>
        <time>2014-10-18T13:48:30Z</time>
      </trkpt>
      <trkpt lat="44.61883" lon="5.90597">
        <ele>1841.36</ele>
        <time>2014-10-18T13:49:24Z</time>
      </trkpt>
      <trkpt lat="44.6185" lon="5.90584">
        <ele>1931.86</ele>
        <time>2014-10-18T13:51:04Z</time>
      </trkpt>
      <trkpt lat="44.61828" lon="5.90589">
        <ele>1920.48</ele>
        <time>2014-10-18T13:53:07Z</time>
      </trkpt>
      <trkpt lat="44.61792" lon="5.90556">
        <ele>1921.92</ele>
        <time>2014-10-18T13:53:37Z</time>
      </trkpt>
      <trkpt lat="44.61801" lon="5.9053">
        <ele>1934.56</ele>
        <time>2014-10-18T13:55:09Z</time>
      </trkpt>
      <trkpt lat="44.61815" lon="5.90496">
        <ele>1927.16</ele>
        <time>2014-10-18T13:56:10Z</time>
      </trkpt>
      <trkpt lat="44.61795" lon="5.9047">
        <ele>1942.36</ele>
        <time>2014-10-18T13:57:22Z</time>
      </trkpt>
      <trkpt lat="44.61784" lon="5.90419">
        <ele>1935.23</ele>
        <time>2014-10-18T13:59:31Z</time>
      </trkpt>
      <trkpt lat="44.61766" lon="5.9041">
        <ele>1985.86</ele>
        <time>2014-10-18T14:01:16Z</time>
      </trkpt>
      <trkpt lat="44.61779" lon="5.90387">
        <ele>1985.23</ele>
        <time>2014-10-18T14:02:30Z</time>
      </trkpt>
      <trkpt lat="44.61706" lon="5.90317">
        <ele>1975.33</ele>
        <time>2014-10-18T14:03:32Z</time>
      </trkpt>
      <trkpt lat="44.61741" lon="5.90334">
        <ele>1968.84</ele>
        <time>2014-10-18T14:04:31Z</time>
      </trkpt>
      <trkpt lat="44.6175" lon="5.90271">
        <ele>1973.08</ele>
        <time>2014-10-18T14:07:34Z</time>
      </trkpt>
      <trkpt lat="44.61767" lon="5.90231">
        <ele>2007.17</ele>
        <time>2014-10-18T14:12:44Z</time>
      </trkpt>
      <trkpt lat="44.61745" lon="5.90189">
        <ele>2024.27</ele>
        <time>2014-10-18T14:13:44Z</time>
      </trkpt>
      <trkpt lat="44.61735" lon="5.90167">
        <ele>2036.34</ele>
        <time>2014-10-18T14:14:45Z</time>
      </trkpt>
      <trkpt lat="44.61787" lon="5.90137">
        <ele>2019.36</ele>
        <time>2014-10-18T14:17:21Z</time>
      </trkpt>
      <trkpt lat="44.61754" lon="5.90094">
        <ele>2055.61</ele>
        <time>2014-10-18T14:18:50Z</time>
      </trkpt>
      <trkpt lat="44.6174" lon="5.90077">
        <ele>2066.99</ele>
        <time>2014-10-18T14:19:22Z</time>
      </trkpt>
      <trkpt lat="44.61783" lon="5.90128">
        <ele>2072.36</ele>
        <time>2014-10-18T14:20:29Z</time>
      </trkpt>
      <trkpt lat="44.61822" lon="5.90096">
        <ele>2094.36</ele>
        <time>2014-10-18T14:22:18Z</time>
      </trkpt>
      <trkpt lat="44.61855" lon="5.90077">
        <ele>2093.92</ele>
        <time>2014-10-18T14:26:00Z</time>
      </trkpt>
      <trkpt lat="44.6182" lon="5.90095">
        <ele>2093.14</ele>
        <time>2014-10-18T14:26:32Z</time>
      </trkpt>
      <trkpt lat="44.61855" lon="5.90071">
        <ele>2117.86</ele>
        <time>2014-10-18T14:29:23Z</time>
      </trkpt>
      <trkpt lat="44.61911" lon="5.90059">
        <ele>2116.42</ele>
        <time>2014-10-18T14:30:28Z</time>
      </trkpt>
      <trkpt lat="44.61907" lon="5.90028">
        <ele>2111.89</ele>
        <time>2014-10-18T14:30:58Z</time>
      </trkpt>
      <trkpt lat="44.61886" lon="5.9005">
        <ele>2137.63</ele>
        <time>2014-10-18T14:31:29Z</time>
      </trkpt>
      <trkpt lat="44.61905" lon="5.90036">
        <ele>2148.99</ele>
        <time>2014-10-18T14:31:59Z</time>
      </trkpt>
      <trkpt lat="44.61932" lon="5.90025">
        <ele>2165.65</ele>
        <time>2014-10-18T14:34:30Z</time>
      </trkpt>
      <trkpt lat="44.61913" lon="5.90022">
        <ele>2196.68</ele>
        <time>2014-10-18T14:35:31Z</time>
      </trkpt>
      <trkpt lat="44.61958" lon="5.89987">
        <ele>2130.36</ele>
        <time>2014-10-18T14:36:41Z</time>
      </trkpt>
      <trkpt lat="44.6194" lon="5.90001">
        <ele>2163.86</ele>
        <time>2014-10-18T14:38:16Z</time>
      </trkpt>
      <trkpt lat="44.6194" lon="5.89952">
        <ele>2195.24</ele>
        <time>2014-10-18T14:42:43Z</time>
      </trkpt>
      <trkpt lat="44.61932" lon="5.89983">
        <ele>2196.3</ele>
        <time>2014-10-18T14:43:14Z</time>
      </trkpt>
      <trkpt lat="44.61951" lon="5.89983">
        <ele>2270.86</ele>
        <time>2014-10-18T14:47:03Z</time>
      </trkpt>
      <trkpt lat="44.6197" lon="5.89972">
        <ele>2259.11</ele>
        <time>2014-10-18T14:47:42Z</time>
      </trkpt>
      <trkpt lat="44.62001" lon="5.89974">
        <ele>2234.05</ele>
        <time>2014-10-18T14:49:15Z</time>
      </trkpt>
      <trkpt lat="44.61973" lon="5.89973">
        <ele>2274.86</ele>
        <time>2014-10-18T14:51:35Z</time>
      </trkpt>
      <trkpt lat="44.61997" lon="5.89966">
        <ele>2283.74</ele>
        <time>2014-10-18T14:52:09Z</time>
      </trkpt>
      <trkpt lat="44.62015" lon="5.89986">
        <ele>2285.86</ele>
        <time>2014-10-18T14:53:51Z</time>
      </trkpt>
      <trkpt lat="44.62033" lon="5.89972">
        <ele>2294.36</ele>
        <time>2014-10-18T14:58:16Z</time>
      </trkpt>
      <trkpt lat="44.6205" lon="5.90002">
        <ele>2298.61</ele>
        <time>2014-10-18T14:58:50Z</time>
      </trkpt>
      <trkpt lat="44.62043" lon="5.89974">
        <ele>2287.36</ele>
        <time>2014-10-18T14:59:26Z</time>
      </trkpt>
      <trkpt lat="44.62033" lon="5.89949">
        <ele>2328.24</ele>
        <time>2014-10-18T15:01:02Z</time>
      </trkpt>
      <trkpt lat="44.62051" lon="5.89941">
        <ele>2342.22</ele>
        <time>2014-10-18T15:02:33Z</time>
      </trkpt>
      <trkpt lat="44.6207" lon="5.89934">
        <ele>2347.79</ele>
        <time>2014-10-18T15:05:33Z</time>
      </trkpt>
      <trkpt lat="44.62086" lon="5.89963">
        <ele>2346.47</ele>
        <time>2014-10-18T15:06:33Z</time>
      </trkpt>
      <trkpt lat="44.621" lon="5.8998">
        <ele>2351.39</ele>
        <time>2014-10-18T15:07:35Z</time>
      </trkpt>
      <trkpt lat="44.62111" lon="5.90002">
        <ele>2349.61</ele>
        <time>2014-10-18T15:08:19Z</time>
      </trkpt>
      <trkpt lat="44.62099" lon="5.89962">
        <ele>2356.36</ele>
        <time>2014-10-18T15:08:55Z</time>
      </trkpt>
      <trkpt lat="44.62097" lon="5.89931">
        <ele>2353.86</ele>
        <time>2014-10-18T15:08:59Z</time>
      </trkpt>
      <trkpt lat="44.6211" lon="5.89966">
        <ele>2349.11</ele>
        <time>2014-10-18T15:09:31Z</time>
      </trkpt>
      <trkpt lat="44.62132" lon="5.89966">
        <ele>2361.36</ele>
        <time>2014-10-18T15:11:37Z</time>
      </trkpt>
      <trkpt lat="44.62109" lon="5.89907">
        <ele>2370.36</ele>
        <time>2014-10-18T15:11:51Z</time>
      </trkpt>
      <trkpt lat="44.62058" lon="5.89943">
        <ele>2355.86</ele>
        <time>2014-10-18T15:11:56Z</time>
      </trkpt>
      <trkpt lat="44.6211" lon="5.89939">
        <ele>2395.86</ele>
        <time>2014-10-18T15:12:30Z</time>
      </trkpt>
      <trkpt lat="44.62106" lon="5.89914">
        <ele>2395.99</ele>
        <time>2014-10-18T15:13:04Z</time>
      </trkpt>
      <trkpt lat="44.6211" lon="5.89939">
        <ele>2399.36</ele>
        <time>2014-10-18T15:13:38Z</time>
      </trkpt>
      <trkpt lat="44.62131" lon="5.89941">
        <ele>2391.61</ele>
        <time>2014-10-18T15:14:12Z</time>
      </trkpt>
      <trkpt lat="44.62163" lon="5.89959">
        <ele>2395.25</ele>
        <time>2014-10-18T15:17:13Z</time>
      </trkpt>
      <trkpt lat="44.62185" lon="5.89953">
        <ele>2387.49</ele>
        <time>2014-10-18T15:18:53Z</time>
      </trkpt>
      <trkpt lat="44.62128" lon="5.89942">
        <ele>2392.86</ele>
        <time>2014-10-18T15:20:34Z</time>
      </trkpt>
      <trkpt lat="44.62159" lon="5.89937">
        <ele>2395.86</ele>
        <time>2014-10-18T15:22:25Z</time>
      </trkpt>
      <trkpt lat="44.62182" lon="5.89909">
        <ele>2429.36</ele>
        <time>2014-10-18T15:23:04Z</time>
      </trkpt>
      <trkpt lat="44.622" lon="5.89912">
        <ele>2431.61</ele>
        <time>2014-10-18T15:24:08Z</time>
      </trkpt>
      <trkpt lat="44.62178" lon="5.89914">
        <ele>2442.86</ele>
        <time>2014-10-18T15:24:45Z</time>
      </trkpt>
      <trkpt lat="44.62202" lon="5.89915">
        <ele>2446.24</ele>
        <time>2014-10-18T15:25:20Z</time>
      </trkpt>
      <trkpt lat="44.62174" lon="5.89913">
        <ele>2482.36</ele>
        <time>2014-10-18T15:25:57Z</time>
      </trkpt>
      <trkpt lat="44.62194" lon="5.89917">
        <ele>2478.3</ele>
        <time>2014-10-18T15:28:19Z</time>
      </trkpt>
      <trkpt lat="44.62215" lon="5.89926">
        <ele>2479.98</ele>
        <time>2014-10-18T15:31:20Z</time>
      </trkpt>
      <trkpt lat="44.62202" lon="5.89903">
        <ele>2534.19</ele>
        <time>2014-10-18T15:33:20Z</time>
      </trkpt>
      <trkpt lat="44.62225" lon="5.89931">
        <ele>2533.82</ele>
        <time>2014-10-18T15:35:20Z</time>
      </trkpt>
      <trkpt lat="44.62241" lon="5.89964">
        <ele>2543.86</ele>
        <time>2014-10-18T15:36:34Z</time>
      </trkpt>
      <trkpt lat="44.62262" lon="5.89954">
        <ele>2560.55</ele>
        <time>2014-10-18T15:38:08Z</time>
      </trkpt>
      <trkpt lat="44.62265" lon="5.89928">
        <ele>2565.36</ele>
        <time>2014-10-18T15:40:17Z</time>
      </trkpt>
      <trkpt lat="44.62272" lon="5.89862">
        <ele>2561.57</ele>
        <time>2014-10-18T15:45:29Z</time>
      </trkpt>
      <trkpt lat="44.62252" lon="5.89857">
        <ele>2578.16</ele>
        <time>2014-10-18T15:47:00Z</time>
      </trkpt>
      <trkpt lat="44.62233" lon="5.89843">
        <ele>2599.81</ele>
        <time>2014-10-18T15:48:31Z</time>
      </trkpt>
      <trkpt lat="44.62236" lon="5.89803">
        <ele>2593.99</ele>
        <time>2014-10-18T15:50:37Z</time>
      </trkpt>
      <trkpt lat="44.62197" lon="5.8974">
        <ele>2594.27</ele>
        <time>2014-10-18T15:52:10Z</time>
      </trkpt>
      <trkpt lat="44.62215" lon="5.89666">
        <ele>2588.31</ele>
        <time>2014-10-18T15:53:09Z</time>
      </trkpt>
      <trkpt lat="44.62218" lon="5.89694">
        <ele>2587.34</ele>
        <time>2014-10-18T15:53:39Z</time>
      </trkpt>
      <trkpt lat="44.62216" lon="5.89704">
        <ele>2629.36</ele>
        <time>2014-10-18T16:06:50Z</time>
      </trkpt>
      <trkpt lat="44.62708" lon="5.89541">
        <ele>2620.36</ele>
        <time>2014-10-18T16:38:33Z</time>
      </trkpt>
      <trkpt lat="44.62766" lon="5.89528">
        <ele>2608.86</ele>
        <time>2014-10-18T16:40:13Z</time>
      </trkpt>
      <trkpt lat="44.62762" lon="5.89544">
        <ele>2595.86</ele>
        <time>2014-10-18T16:41:03Z</time>
      </trkpt>
      <trkpt lat="44.62798" lon="5.89557">
        <ele>2575.61</ele>
        <time>2014-10-18T16:41:33Z</time>
      </trkpt>
      <trkpt lat="44.62818" lon="5.89543">
        <ele>2560.49</ele>
        <time>2014-10-18T16:42:05Z</time>
      </trkpt>
      <trkpt lat="44.62847" lon="5.89555">
        <ele>2556.92</ele>
        <time>2014-10-18T16:42:36Z</time>
      </trkpt>
      <trkpt lat="44.62869" lon="5.89596">
        <ele>2586.14</ele>
        <time>2014-10-18T16:43:34Z</time>
      </trkpt>
      <trkpt lat="44.62897" lon="5.89598">
        <ele>2583.36</ele>
        <time>2014-10-18T16:46:03Z</time>
      </trkpt>
      <trkpt lat="44.6292" lon="5.89648">
        <ele>2593.61</ele>
        <time>2014-10-18T16:46:38Z</time>
      </trkpt>
      <trkpt lat="44.62971" lon="5.89702">
        <ele>2596.49</ele>
        <time>2014-10-18T16:47:38Z</time>
      </trkpt>
      <trkpt lat="44.63013" lon="5.89775">
        <ele>2596.42</ele>
        <time>2014-10-18T16:48:37Z</time>
      </trkpt>
      <trkpt lat="44.63028" lon="5.89789">
        <ele>2594.39</ele>
        <time>2014-10-18T16:49:09Z</time>
      </trkpt>
      <trkpt lat="44.63083" lon="5.89808">
        <ele>2589.87</ele>
        <time>2014-10-18T16:50:11Z</time>
      </trkpt>
      <trkpt lat="44.63149" lon="5.89876">
        <ele>2593.11</ele>
        <time>2014-10-18T16:51:14Z</time>
      </trkpt>
      <trkpt lat="44.63174" lon="5.89927">
        <ele>2580.55</ele>
        <time>2014-10-18T16:53:14Z</time>
      </trkpt>
      <trkpt lat="44.63199" lon="5.90005">
        <ele>2576.95</ele>
        <time>2014-10-18T16:54:14Z</time>
      </trkpt>
      <trkpt lat="44.63225" lon="5.90082">
        <ele>2572.16</ele>
        <time>2014-10-18T16:55:14Z</time>
      </trkpt>
      <trkpt lat="44.63269" lon="5.90179">
        <ele>2561.26</ele>
        <time>2014-10-18T16:56:15Z</time>
      </trkpt>
      <trkpt lat="44.63276" lon="5.90208">
        <ele>2568.81</ele>
        <time>2014-10-18T16:56:45Z</time>
      </trkpt>
      <trkpt lat="44.63293" lon="5.90251">
        <ele>2562.08</ele>
        <time>2014-10-18T16:57:15Z</time>
      </trkpt>
      <trkpt lat="44.63299" lon="5.90275">
        <ele>2560.72</ele>
        <time>2014-10-18T16:57:45Z</time>
      </trkpt>
      <trkpt lat="44.63314" lon="5.90357">
        <ele>2562.54</ele>
        <time>2014-10-18T16:58:44Z</time>
      </trkpt>
      <trkpt lat="44.63377" lon="5.90415">
        <ele>2557.41</ele>
        <time>2014-10-18T17:00:15Z</time>
      </trkpt>
      <trkpt lat="44.6341" lon="5.90451">
        <ele>2557.38</ele>
        <time>2014-10-18T17:00:45Z</time>
      </trkpt>
      <trkpt lat="44.63391" lon="5.90489">
        <ele>2567.62</ele>
        <time>2014-10-18T17:02:16Z</time>
      </trkpt>
      <trkpt lat="44.63383" lon="5.90535">
        <ele>2580.99</ele>
        <time>2014-10-18T17:02:47Z</time>
      </trkpt>
      <trkpt lat="44.63393" lon="5.90574">
        <ele>2586.17</ele>
        <time>2014-10-18T17:03:46Z</time>
      </trkpt>
      <trkpt lat="44.63388" lon="5.90601">
        <ele>2551.77</ele>
        <time>2014-10-18T17:04:16Z</time>
      </trkpt>
      <trkpt lat="44.63398" lon="5.90626">
        <ele>2536.06</ele>
        <time>2014-10-18T17:04:47Z</time>
      </trkpt>
      <trkpt lat="44.63413" lon="5.90648">
        <ele>2552.21</ele>
        <time>2014-10-18T17:05:45Z</time>
      </trkpt>
      <trkpt lat="44.63389" lon="5.90658">
        <ele>2537.79</ele>
        <time>2014-10-18T17:06:16Z</time>
      </trkpt>
      <trkpt lat="44.6338" lon="5.9069">
        <ele>2595.36</ele>
        <time>2014-10-18T17:07:09Z</time>
      </trkpt>
      <trkpt lat="44.63391" lon="5.90718">
        <ele>2587.11</ele>
        <time>2014-10-18T17:08:13Z</time>
      </trkpt>
      <trkpt lat="44.63379" lon="5.90751">
        <ele>2591.74</ele>
        <time>2014-10-18T17:08:44Z</time>
      </trkpt>
      <trkpt lat="44.63396" lon="5.90789">
        <ele>2589.55</ele>
        <time>2014-10-18T17:09:15Z</time>
      </trkpt>
      <trkpt lat="44.63404" lon="5.90869">
        <ele>2567.41</ele>
        <time>2014-10-18T17:10:46Z</time>
      </trkpt>
      <trkpt lat="44.6343" lon="5.90834">
        <ele>2563.88</ele>
        <time>2014-10-18T17:11:47Z</time>
      </trkpt>
      <trkpt lat="44.63398" lon="5.90841">
        <ele>2545.12</ele>
        <time>2014-10-18T17:12:19Z</time>
      </trkpt>
      <trkpt lat="44.6343" lon="5.90816">
        <ele>2611.86</ele>
        <time>2014-10-18T17:13:29Z</time>
      </trkpt>
      <trkpt lat="44.63388" lon="5.90868">
        <ele>2504.11</ele>
        <time>2014-10-18T17:14:47Z</time>
      </trkpt>
      <trkpt lat="44.63412" lon="5.90813">
        <ele>2546.86</ele>
        <time>2014-10-18T17:15:30Z</time>
      </trkpt>
      <trkpt lat="44.63433" lon="5.90878">
        <ele>2574.74</ele>
        <time>2014-10-18T17:16:06Z</time>
      </trkpt>
      <trkpt lat="44.63412" lon="5.90833">
        <ele>2609.55</ele>
        <time>2014-10-18T17:16:36Z</time>
      </trkpt>
    </trkseg>
  </trk>
</gpx>